createdAt,value
2019-03-11T00:00:32.977Z,3.37
2019-03-11T00:03:01.827Z,3.37
2019-03-11T00:05:30.661Z,3.47
2019-03-11T00:07:59.541Z,3.57
2019-03-11T00:10:28.338Z,2.10
2019-03-11T00:12:57.221Z,3.23
2019-03-11T00:15:26.047Z,3.27
2019-03-11T00:17:54.927Z,4.37
2019-03-11T00:20:23.738Z,4.67
2019-03-11T00:22:52.729Z,3.23
2019-03-11T00:25:21.646Z,2.03
2019-03-11T00:27:50.519Z,1.73
2019-03-11T00:30:19.412Z,3.33
2019-03-11T00:32:48.250Z,3.43
2019-03-11T00:35:17.068Z,2.33
2019-03-11T00:37:45.949Z,5.17
2019-03-11T00:40:17.725Z,4.97
2019-03-11T00:42:46.561Z,2.00
2019-03-11T00:45:16.181Z,2.93
2019-03-11T00:47:45.042Z,3.57
2019-03-11T00:50:14.058Z,4.87
2019-03-11T00:52:43.069Z,3.23
2019-03-11T00:55:13.210Z,2.90
2019-03-11T00:57:42.158Z,4.50
2019-03-11T01:00:34.325Z,2.77
2019-03-11T01:03:03.102Z,1.07
2019-03-11T01:05:31.963Z,1.13
2019-03-11T01:08:00.831Z,0.57
2019-03-11T01:10:29.684Z,5.70
2019-03-11T01:12:58.553Z,2.23
2019-03-11T01:15:27.349Z,1.77
2019-03-11T01:17:56.196Z,2.27
2019-03-11T01:20:25.000Z,2.50
2019-03-11T01:22:53.859Z,1.73
2019-03-11T01:25:22.743Z,1.93
2019-03-11T01:27:53.238Z,1.63
2019-03-11T01:30:22.045Z,2.33
2019-03-11T01:32:50.895Z,2.37
2019-03-11T01:35:19.741Z,2.13
2019-03-11T01:37:48.628Z,4.30
2019-03-11T01:40:18.433Z,4.77
2019-03-11T01:42:47.305Z,3.40
2019-03-11T01:45:17.859Z,1.80
2019-03-11T01:47:46.873Z,1.70
2019-03-11T01:50:15.781Z,1.97
2019-03-11T01:52:44.665Z,0.37
2019-03-11T01:55:14.499Z,1.93
2019-03-11T01:57:43.405Z,4.30
2019-03-11T02:00:15.289Z,3.77
2019-03-11T02:02:44.145Z,5.50
2019-03-11T02:05:13.036Z,3.90
2019-03-11T02:07:41.879Z,1.30
2019-03-11T02:10:13.451Z,2.43
2019-03-11T02:12:42.368Z,1.50
2019-03-11T02:15:17.282Z,3.17
2019-03-11T02:17:46.590Z,4.47
2019-03-11T02:20:16.656Z,1.77
2019-03-11T02:22:45.611Z,3.83
2019-03-11T02:25:14.853Z,3.27
2019-03-11T02:27:43.792Z,3.10
2019-03-11T02:30:17.114Z,2.40
2019-03-11T02:32:46.065Z,3.47
2019-03-11T02:35:20.660Z,2.33
2019-03-11T02:37:49.517Z,3.77
2019-03-11T02:40:18.408Z,3.80
2019-03-11T02:42:47.278Z,1.70
2019-03-11T02:45:16.121Z,3.23
2019-03-11T02:47:45.000Z,1.20
2019-03-11T02:50:13.841Z,1.60
2019-03-11T02:52:42.681Z,2.13
2019-03-11T02:55:11.686Z,4.20
2019-03-11T02:57:40.577Z,1.73
2019-03-11T03:00:15.955Z,2.17
2019-03-11T03:02:55.486Z,4.93
2019-03-11T03:05:25.916Z,1.73
2019-03-11T03:07:54.736Z,3.63
2019-03-11T03:10:23.601Z,1.47
2019-03-11T03:12:52.453Z,3.83
2019-03-11T03:15:21.277Z,7.10
2019-03-11T03:17:50.171Z,2.20
2019-03-11T03:20:18.959Z,1.50
2019-03-11T03:22:47.832Z,1.63
2019-03-11T03:25:16.632Z,1.33
2019-03-11T03:27:45.552Z,5.33
2019-03-11T03:30:18.839Z,1.40
2019-03-11T03:32:47.705Z,3.83
2019-03-11T03:35:16.568Z,1.97
2019-03-11T03:37:45.458Z,2.43
2019-03-11T03:40:15.823Z,2.43
2019-03-11T03:42:44.765Z,1.40
2019-03-11T03:45:24.373Z,4.57
2019-03-11T03:47:53.293Z,3.13
2019-03-11T03:50:33.869Z,3.07
2019-03-11T03:53:02.706Z,4.70
2019-03-11T03:55:31.553Z,4.23
2019-03-11T03:58:00.460Z,4.63
2019-03-11T04:00:29.291Z,7.30
2019-03-11T04:02:58.142Z,1.90
2019-03-11T04:05:26.951Z,1.67
2019-03-11T04:07:55.762Z,2.27
2019-03-11T04:10:24.677Z,1.67
2019-03-11T04:12:53.463Z,1.87
2019-03-11T04:15:22.383Z,3.73
2019-03-11T04:17:51.245Z,4.20
2019-03-11T04:20:21.819Z,3.97
2019-03-11T04:22:50.773Z,3.90
2019-03-11T04:25:19.628Z,2.07
2019-03-11T04:27:48.577Z,3.10
2019-03-11T04:30:25.121Z,6.83
2019-03-11T04:32:53.985Z,1.33
2019-03-11T04:35:22.876Z,3.10
2019-03-11T04:37:51.855Z,6.23
2019-03-11T04:40:20.644Z,6.17
2019-03-11T04:42:49.532Z,3.50
2019-03-11T04:45:18.662Z,2.63
2019-03-11T04:47:47.646Z,2.57
2019-03-11T04:50:17.442Z,6.20
2019-03-11T04:52:46.241Z,5.73
2019-03-11T04:55:16.539Z,2.60
2019-03-11T04:57:50.482Z,7.70
2019-03-11T05:00:21.755Z,5.03
2019-03-11T05:02:51.420Z,12.47
2019-03-11T05:05:20.233Z,3.33
2019-03-11T05:07:49.147Z,3.10
2019-03-11T05:10:17.952Z,2.17
2019-03-11T05:12:46.861Z,2.80
2019-03-11T05:15:15.692Z,5.80
2019-03-11T05:17:44.600Z,6.40
2019-03-11T05:20:17.280Z,6.00
2019-03-11T05:22:46.169Z,2.77
2019-03-11T05:25:15.827Z,5.33
2019-03-11T05:27:44.745Z,6.07
2019-03-11T05:30:20.676Z,5.37
2019-03-11T05:32:49.544Z,3.70
2019-03-11T05:35:18.358Z,4.50
2019-03-11T05:37:47.191Z,6.80
2019-03-11T05:40:18.031Z,3.70
2019-03-11T05:42:46.903Z,2.90
2019-03-11T05:45:17.602Z,5.53
2019-03-11T05:47:46.560Z,1.70
2019-03-11T05:50:19.052Z,5.20
2019-03-11T05:52:47.916Z,5.77
2019-03-11T05:55:17.115Z,6.67
2019-03-11T05:57:45.940Z,4.83
2019-03-11T06:00:26.196Z,4.03
2019-03-11T06:02:55.020Z,7.33
2019-03-11T06:05:23.854Z,2.97
2019-03-11T06:07:52.701Z,7.63
2019-03-11T06:10:21.552Z,4.13
2019-03-11T06:12:50.448Z,4.63
2019-03-11T06:15:19.220Z,4.93
2019-03-11T06:17:48.181Z,8.20
2019-03-11T06:20:25.543Z,5.17
2019-03-11T06:22:54.348Z,4.67
2019-03-11T06:25:23.238Z,7.93
2019-03-11T06:27:52.044Z,7.00
2019-03-11T06:30:20.873Z,5.13
2019-03-11T06:32:49.721Z,3.87
2019-03-11T06:35:18.545Z,11.37
2019-03-11T06:37:47.356Z,6.30
2019-03-11T06:40:16.223Z,3.63
2019-03-11T06:42:45.102Z,6.13
2019-03-11T06:45:15.020Z,5.47
2019-03-11T06:47:43.914Z,4.53
2019-03-11T06:50:13.952Z,7.73
2019-03-11T06:52:42.843Z,6.03
2019-03-11T06:55:12.628Z,7.23
2019-03-11T06:57:41.478Z,7.40
2019-03-11T07:00:15.653Z,4.67
2019-03-11T07:02:44.572Z,6.87
2019-03-11T07:05:19.811Z,10.83
2019-03-11T07:07:43.847Z,7.10
2019-03-11T07:10:16.453Z,11.17
2019-03-11T07:12:45.299Z,3.77
2019-03-11T07:15:15.696Z,9.90
2019-03-11T07:17:44.856Z,6.80
2019-03-11T07:20:18.923Z,10.63
2019-03-11T07:22:47.772Z,9.00
2019-03-11T07:25:16.613Z,7.20
2019-03-11T07:27:45.492Z,6.63
2019-03-11T07:30:16.407Z,6.57
2019-03-11T07:32:45.323Z,7.50
2019-03-11T07:35:14.266Z,8.50
2019-03-11T07:37:43.132Z,5.97
2019-03-11T07:40:16.261Z,8.93
2019-03-11T07:42:45.100Z,5.27
2019-03-11T07:45:15.155Z,7.63
2019-03-11T07:47:43.956Z,9.23
2019-03-11T07:50:14.842Z,5.23
2019-03-11T07:52:43.643Z,11.93
2019-03-11T07:55:14.068Z,8.87
2019-03-11T07:57:42.877Z,8.23
2019-03-11T08:00:14.685Z,8.80
2019-03-11T08:02:43.510Z,10.73
2019-03-11T08:05:12.457Z,8.37
2019-03-11T08:07:41.294Z,9.10
2019-03-11T08:10:24.082Z,8.00
2019-03-11T08:12:53.158Z,7.97
2019-03-11T08:15:22.014Z,9.57
2019-03-11T08:17:50.774Z,5.53
2019-03-11T08:20:19.638Z,13.87
2019-03-11T08:22:48.535Z,7.97
2019-03-11T08:25:25.897Z,7.43
2019-03-11T08:27:54.777Z,6.50
2019-03-11T08:30:23.723Z,9.17
2019-03-11T08:32:52.626Z,6.43
2019-03-11T08:35:21.468Z,6.53
2019-03-11T08:37:50.291Z,7.00
2019-03-11T08:40:20.288Z,4.37
2019-03-11T08:42:49.113Z,4.43
2019-03-11T08:45:18.845Z,5.37
2019-03-11T08:47:47.767Z,7.37
2019-03-11T08:50:16.963Z,7.77
2019-03-11T08:52:45.839Z,5.40
2019-03-11T08:55:14.843Z,9.83
2019-03-11T08:57:43.785Z,4.77
2019-03-11T09:00:20.240Z,8.03
2019-03-11T09:02:49.081Z,7.30
2019-03-11T09:05:17.922Z,7.13
2019-03-11T09:07:46.731Z,6.00
2019-03-11T09:10:17.459Z,7.37
2019-03-11T09:12:46.345Z,6.03
2019-03-11T09:15:17.335Z,5.33
2019-03-11T09:17:46.134Z,4.60
2019-03-11T09:20:16.296Z,6.40
2019-03-11T09:22:45.151Z,4.37
2019-03-11T09:25:16.431Z,3.30
2019-03-11T09:27:45.300Z,6.33
2019-03-11T09:30:16.636Z,5.73
2019-03-11T09:32:45.552Z,5.60
2019-03-11T09:35:14.413Z,4.00
2019-03-11T09:37:43.208Z,7.30
2019-03-11T09:40:14.621Z,8.53
2019-03-11T09:42:43.450Z,6.17
2019-03-11T09:45:15.075Z,4.57
2019-03-11T09:47:43.894Z,6.03
2019-03-11T09:50:18.844Z,6.83
2019-03-11T09:52:47.709Z,6.00
2019-03-11T09:55:24.776Z,7.53
2019-03-11T09:57:53.780Z,12.27
2019-03-11T10:00:30.485Z,6.60
2019-03-11T10:02:59.350Z,6.30
2019-03-11T10:05:28.237Z,7.07
2019-03-11T10:07:57.186Z,7.33
2019-03-11T10:10:27.880Z,6.30
2019-03-11T10:12:56.738Z,6.33
2019-03-11T10:15:25.662Z,8.97
2019-03-11T10:17:54.541Z,5.70
2019-03-11T10:20:23.416Z,4.67
2019-03-11T10:22:52.248Z,6.20
2019-03-11T10:25:21.639Z,5.73
2019-03-11T10:27:50.510Z,6.93
2019-03-11T10:30:25.123Z,6.80
2019-03-11T10:32:53.936Z,5.20
2019-03-11T10:35:38.116Z,4.97
2019-03-11T10:37:53.246Z,3.97
2019-03-11T10:40:26.272Z,6.93
2019-03-11T10:42:55.138Z,5.30
2019-03-11T10:45:31.214Z,2.90
2019-03-11T10:47:54.532Z,7.47
2019-03-11T10:50:23.503Z,6.50
2019-03-11T10:52:52.368Z,5.17
2019-03-11T10:55:25.096Z,8.13
2019-03-11T10:57:54.049Z,4.23
2019-03-11T11:00:28.138Z,3.50
2019-03-11T11:02:57.017Z,4.57
2019-03-11T11:05:25.848Z,4.40
2019-03-11T11:07:55.397Z,4.87
2019-03-11T11:10:24.310Z,6.00
2019-03-11T11:12:53.250Z,5.83
2019-03-11T11:15:25.084Z,7.73
2019-03-11T11:17:53.929Z,6.87
2019-03-11T11:20:23.793Z,3.97
2019-03-11T11:22:53.801Z,3.80
2019-03-11T11:25:24.040Z,7.13
2019-03-11T11:27:53.076Z,7.23
2019-03-11T11:30:24.640Z,6.73
2019-03-11T11:32:53.653Z,5.50
2019-03-11T11:35:22.488Z,3.50
2019-03-11T11:37:51.357Z,6.90
2019-03-11T11:40:24.684Z,3.10
2019-03-11T11:42:53.531Z,1.87
2019-03-11T11:45:23.852Z,0.40
2019-03-11T11:47:52.673Z,0.30
2019-03-11T11:50:23.511Z,1.83
2019-03-11T11:52:53.555Z,2.10
2019-03-11T11:55:23.201Z,0.80
2019-03-11T11:57:52.338Z,5.30
2019-03-11T12:00:25.213Z,0.50
2019-03-11T12:02:54.126Z,1.67
2019-03-11T12:05:23.080Z,1.83
2019-03-11T12:07:52.057Z,1.13
2019-03-11T12:10:31.389Z,1.00
2019-03-11T12:13:00.296Z,0.73
2019-03-11T12:15:29.141Z,0.40
2019-03-11T12:17:57.977Z,0.43
2019-03-11T12:20:28.675Z,0.30
2019-03-11T12:22:57.526Z,0.20
2019-03-11T12:25:26.360Z,0.30
2019-03-11T12:27:57.919Z,0.50
2019-03-11T12:30:33.660Z,0.67
2019-03-11T12:33:02.453Z,0.53
2019-03-11T12:35:31.507Z,1.90
2019-03-11T12:38:00.385Z,0.20
2019-03-11T12:40:29.227Z,1.40
2019-03-11T12:42:58.079Z,1.40
2019-03-11T12:45:27.380Z,0.30
2019-03-11T12:47:56.259Z,0.60
2019-03-11T12:50:32.677Z,0.43
2019-03-11T12:53:01.555Z,1.50
2019-03-11T12:55:30.420Z,0.30
2019-03-11T12:57:59.267Z,0.67
2019-03-11T13:00:28.130Z,1.70
2019-03-11T13:02:57.010Z,1.00
2019-03-11T13:05:25.876Z,1.03
2019-03-11T13:07:54.722Z,0.97
2019-03-11T13:10:27.476Z,0.40
2019-03-11T13:12:56.466Z,0.73
2019-03-11T13:15:25.308Z,1.50
2019-03-11T13:17:54.110Z,0.80
2019-03-11T13:20:25.894Z,2.30
2019-03-11T13:22:54.753Z,1.23
2019-03-11T13:25:23.581Z,2.40
2019-03-11T13:27:52.455Z,1.70
2019-03-11T13:30:21.277Z,0.80
2019-03-11T13:32:50.124Z,2.30
2019-03-11T13:35:18.950Z,1.50
2019-03-11T13:37:47.782Z,1.50
2019-03-11T13:40:17.271Z,0.50
2019-03-11T13:42:46.130Z,0.30
2019-03-11T13:45:20.766Z,0.80
2019-03-11T13:47:49.576Z,0.77
2019-03-11T13:50:19.136Z,0.90
2019-03-11T13:52:48.093Z,0.97
2019-03-11T13:55:17.776Z,2.10
2019-03-11T13:57:46.700Z,0.57
2019-03-11T14:00:17.988Z,1.23
2019-03-11T14:02:46.840Z,1.13
2019-03-11T14:05:15.643Z,0.97
2019-03-11T14:07:44.520Z,1.57
2019-03-11T14:10:14.487Z,1.60
2019-03-11T14:12:43.289Z,1.60
2019-03-11T14:15:21.652Z,0.70
2019-03-11T14:17:50.508Z,3.77
2019-03-11T14:20:19.370Z,0.40
2019-03-11T14:22:48.244Z,0.80
2019-03-11T14:25:17.175Z,1.03
2019-03-11T14:27:45.983Z,1.40
2019-03-11T14:30:18.747Z,1.57
2019-03-11T14:32:47.651Z,1.37
2019-03-11T14:35:16.485Z,2.37
2019-03-11T14:37:45.348Z,0.60
2019-03-11T14:40:18.061Z,0.70
2019-03-11T14:42:46.989Z,0.40
2019-03-11T14:45:23.711Z,0.23
2019-03-11T14:47:52.519Z,0.40
2019-03-11T14:50:21.388Z,1.13
2019-03-11T14:52:50.216Z,1.60
2019-03-11T14:55:19.190Z,2.00
2019-03-11T14:57:48.008Z,1.47
2019-03-11T15:00:19.823Z,3.47
2019-03-11T15:02:48.956Z,2.20
2019-03-11T15:05:18.879Z,0.27
2019-03-11T15:07:48.052Z,0.77
2019-03-11T15:10:18.391Z,0.30
2019-03-11T15:12:47.823Z,1.67
2019-03-11T15:15:18.969Z,0.60
2019-03-11T15:17:47.915Z,0.50
2019-03-11T15:20:16.820Z,1.03
2019-03-11T15:22:45.720Z,0.73
2019-03-11T15:25:15.530Z,0.70
2019-03-11T15:27:44.512Z,1.20
2019-03-11T15:30:16.524Z,0.97
2019-03-11T15:32:45.386Z,1.97
2019-03-11T15:35:14.510Z,0.97
2019-03-11T15:37:43.384Z,0.90
2019-03-11T15:40:16.720Z,1.03
2019-03-11T15:42:45.609Z,0.77
2019-03-11T15:45:18.329Z,1.90
2019-03-11T15:47:47.293Z,1.17
2019-03-11T15:50:27.645Z,1.27
2019-03-11T15:52:56.533Z,1.80
2019-03-11T15:55:25.360Z,0.97
2019-03-11T15:57:54.321Z,0.73
2019-03-11T16:00:24.229Z,1.10
2019-03-11T16:02:53.235Z,4.03
2019-03-11T16:05:26.724Z,1.13
2019-03-11T16:07:56.062Z,1.00
2019-03-11T16:10:24.970Z,3.07
2019-03-11T16:12:53.839Z,0.67
2019-03-11T16:15:22.648Z,4.70
2019-03-11T16:17:51.490Z,1.57
2019-03-11T16:20:22.713Z,0.70
2019-03-11T16:22:51.545Z,0.80
2019-03-11T16:25:20.499Z,1.50
2019-03-11T16:27:49.421Z,0.87
2019-03-11T16:30:28.401Z,1.70
2019-03-11T16:32:59.969Z,2.63
2019-03-11T16:35:28.925Z,2.90
2019-03-11T16:37:57.781Z,0.50
2019-03-11T16:40:26.877Z,1.30
2019-03-11T16:42:55.689Z,0.67
2019-03-11T16:45:24.944Z,0.67
2019-03-11T16:47:53.789Z,1.23
2019-03-11T16:50:26.960Z,0.60
2019-03-11T16:52:55.856Z,1.17
2019-03-11T16:55:38.518Z,0.70
2019-03-11T16:58:07.406Z,1.23
2019-03-11T17:00:37.785Z,2.87
2019-03-11T17:03:07.168Z,2.33
2019-03-11T17:05:36.062Z,0.60
2019-03-11T17:08:05.096Z,1.07
2019-03-11T17:10:34.085Z,0.50
2019-03-11T17:13:02.885Z,1.10
2019-03-11T17:15:31.718Z,0.97
2019-03-11T17:18:00.540Z,0.67
2019-03-11T17:20:29.476Z,0.50
2019-03-11T17:22:58.418Z,2.27
2019-03-11T17:25:27.248Z,1.03
2019-03-11T17:27:56.158Z,0.60
2019-03-11T17:30:26.914Z,2.67
2019-03-11T17:32:55.849Z,1.23
2019-03-11T17:35:24.902Z,1.03
2019-03-11T17:37:53.898Z,1.33
2019-03-11T17:40:28.177Z,0.80
2019-03-11T17:42:57.121Z,1.27
2019-03-11T17:45:25.907Z,0.63
2019-03-11T17:47:54.933Z,4.33
2019-03-11T17:50:24.547Z,1.70
2019-03-11T17:52:53.622Z,1.80
2019-03-11T17:55:22.536Z,2.37
2019-03-11T17:57:51.430Z,1.40
2019-03-11T18:00:26.128Z,3.03
2019-03-11T18:02:55.295Z,1.33
2019-03-11T18:05:24.326Z,0.80
2019-03-11T18:07:53.266Z,2.23
2019-03-11T18:10:22.137Z,1.90
2019-03-11T18:12:51.049Z,1.43
2019-03-11T18:15:20.049Z,1.47
2019-03-11T18:17:49.007Z,0.87
2019-03-11T18:20:20.340Z,2.33
2019-03-11T18:22:49.686Z,0.80
2019-03-11T18:25:19.955Z,2.50
2019-03-11T18:27:48.965Z,1.90
2019-03-11T18:30:31.932Z,1.13
2019-03-11T18:33:00.778Z,1.77
2019-03-11T18:35:29.730Z,2.43
2019-03-11T18:38:04.048Z,1.07
2019-03-11T18:40:29.318Z,1.23
2019-03-11T18:42:58.158Z,0.87
2019-03-11T18:45:27.147Z,1.07
2019-03-11T18:47:56.155Z,3.00
2019-03-11T18:50:25.504Z,1.00
2019-03-11T18:52:54.503Z,1.50
2019-03-11T18:55:23.502Z,1.33
2019-03-11T18:57:52.349Z,1.27
2019-03-11T19:00:22.447Z,1.90
2019-03-11T19:02:51.567Z,2.83
2019-03-11T19:05:21.711Z,1.40
2019-03-11T19:07:50.511Z,1.10
2019-03-11T19:10:19.569Z,2.27
2019-03-11T19:12:50.156Z,1.20
2019-03-11T19:15:26.124Z,2.57
2019-03-11T19:17:54.932Z,1.10
2019-03-11T19:20:24.745Z,2.07
2019-03-11T19:22:53.667Z,2.47
2019-03-11T19:25:22.764Z,1.40
2019-03-11T19:27:51.590Z,1.53
2019-03-11T19:30:22.704Z,1.70
2019-03-11T19:32:51.820Z,2.97
2019-03-11T19:35:20.888Z,0.97
2019-03-11T19:37:49.922Z,1.50
2019-03-11T19:40:21.053Z,1.97
2019-03-11T19:42:50.247Z,1.23
2019-03-11T19:45:19.294Z,0.80
2019-03-11T19:47:48.130Z,2.57
2019-03-11T19:50:18.801Z,1.37
2019-03-11T19:52:57.897Z,1.07
2019-03-11T19:55:18.645Z,2.90
2019-03-11T19:57:47.600Z,1.13
2019-03-11T20:00:18.862Z,1.40
2019-03-11T20:02:47.937Z,1.27
2019-03-11T20:05:19.583Z,1.53
2019-03-11T20:07:48.392Z,1.87
2019-03-11T20:10:17.698Z,2.17
2019-03-11T20:12:46.750Z,0.90
2019-03-11T20:15:16.036Z,1.20
2019-03-11T20:17:45.049Z,1.20
2019-03-11T20:20:16.412Z,1.20
2019-03-11T20:22:45.360Z,3.33
2019-03-11T20:25:23.133Z,1.23
2019-03-11T20:27:52.118Z,1.60
2019-03-11T20:30:22.792Z,1.47
2019-03-11T20:32:51.719Z,1.30
2019-03-11T20:35:20.635Z,1.27
2019-03-11T20:37:49.490Z,1.73
2019-03-11T20:40:18.464Z,1.33
2019-03-11T20:42:47.449Z,1.60
2019-03-11T20:45:19.167Z,1.40
2019-03-11T20:47:48.105Z,1.27
2019-03-11T20:50:18.260Z,1.87
2019-03-11T20:52:47.391Z,1.80
2019-03-11T20:55:17.617Z,1.37
2019-03-11T20:57:46.543Z,1.77
2019-03-11T21:00:22.660Z,1.40
2019-03-11T21:02:51.766Z,3.27
2019-03-11T21:05:31.141Z,2.00
2019-03-11T21:07:59.988Z,2.80
2019-03-11T21:10:28.849Z,5.77
2019-03-11T21:12:57.714Z,3.47
2019-03-11T21:15:26.516Z,2.50
2019-03-11T21:17:55.371Z,4.07
2019-03-11T21:20:24.248Z,2.20
2019-03-11T21:22:53.322Z,2.97
2019-03-11T21:25:22.599Z,2.20
2019-03-11T21:27:52.467Z,3.77
2019-03-11T21:30:22.803Z,2.40
2019-03-11T21:32:51.673Z,2.03
2019-03-11T21:35:20.779Z,2.93
2019-03-11T21:37:50.325Z,2.47
2019-03-11T21:40:22.792Z,3.07
2019-03-11T21:42:51.784Z,3.47
2019-03-11T21:45:32.906Z,2.40
2019-03-11T21:47:51.412Z,2.60
2019-03-11T21:50:24.803Z,4.00
2019-03-11T21:52:53.956Z,4.47
2019-03-11T21:55:23.071Z,2.60
2019-03-11T21:57:52.031Z,2.93
2019-03-11T22:00:33.682Z,2.97
2019-03-11T22:02:54.864Z,3.77
2019-03-11T22:05:23.739Z,5.23
2019-03-11T22:07:52.556Z,4.13
2019-03-11T22:10:21.817Z,2.87
2019-03-11T22:12:50.716Z,3.60
2019-03-11T22:15:24.003Z,3.30
2019-03-11T22:17:52.872Z,3.33
2019-03-11T22:20:21.719Z,3.50
2019-03-11T22:22:50.879Z,3.53
2019-03-11T22:25:20.713Z,2.43
2019-03-11T22:27:49.756Z,2.70
2019-03-11T22:30:22.529Z,4.10
2019-03-11T22:32:51.453Z,2.47
2019-03-11T22:35:20.255Z,3.17
2019-03-11T22:37:49.137Z,3.20
2019-03-11T22:40:18.865Z,2.50
2019-03-11T22:42:47.750Z,2.53
2019-03-11T22:45:20.036Z,2.77
2019-03-11T22:47:49.850Z,3.33
2019-03-11T22:50:18.657Z,2.97
2019-03-11T22:52:47.778Z,5.13
2019-03-11T22:55:17.232Z,2.70
2019-03-11T22:57:46.074Z,3.10
2019-03-11T23:00:17.959Z,2.63
2019-03-11T23:02:46.798Z,2.83
2019-03-11T23:05:15.662Z,3.17
2019-03-11T23:07:44.518Z,3.50
2019-03-11T23:10:13.367Z,2.60
2019-03-11T23:12:42.219Z,2.97
2019-03-11T23:15:11.019Z,3.50
2019-03-11T23:17:39.910Z,4.10
2019-03-11T23:20:09.549Z,3.13
2019-03-11T23:22:38.359Z,2.90
2019-03-11T23:25:08.619Z,4.00
2019-03-11T23:27:37.499Z,5.87
2019-03-11T23:30:11.985Z,3.80
2019-03-11T23:32:40.827Z,6.97
2019-03-11T23:35:09.775Z,4.07
2019-03-11T23:37:38.598Z,3.50
2019-03-11T23:40:09.492Z,3.90
2019-03-11T23:42:38.366Z,4.27
2019-03-11T23:45:11.217Z,5.87
2019-03-11T23:47:40.035Z,3.80
2019-03-11T23:50:15.533Z,3.97
2019-03-11T23:52:44.343Z,5.40
2019-03-11T23:55:13.554Z,4.70
2019-03-11T23:57:42.960Z,4.90
